Time,TemperatureF,DewpointF,PressureIn,WindDirection,WindDirectionDegrees,WindSpeedMPH,WindSpeedGustMPH,Humidity,HourlyPrecipIn,Conditions,Clouds,dailyrainin,SoftwareType,DateUTC
2013-03-31 00:01:00,48.0,41.0,-100.00,NNW,329,3.0,4.0,77,-99.99,,,-99.99,,2013-03-31 07:01:00,
2013-03-31 00:12:00,48.0,41.0,-100.00,NNW,328,4.0,5.0,78,-99.99,,,-99.99,,2013-03-31 07:12:00,
2013-03-31 00:22:00,47.0,41.0,-100.00,NNW,337,4.0,5.0,80,-99.99,,,-99.99,,2013-03-31 07:22:00,
2013-03-31 00:32:00,46.0,41.0,-100.00,NW,326,5.0,6.0,81,-99.99,,,-99.99,,2013-03-31 07:32:00,
2013-03-31 00:42:00,46.0,41.0,-100.00,NW,326,5.0,6.0,81,-99.99,,,-99.99,,2013-03-31 07:42:00,
2013-03-31 00:52:00,46.0,41.0,-100.00,NNW,327,5.0,6.0,81,-99.99,,,-99.99,,2013-03-31 07:52:00,
2013-03-31 01:01:00,47.0,41.0,-100.00,NW,324,6.0,6.0,80,-99.99,,,-99.99,,2013-03-31 08:01:00,
2013-03-31 01:12:00,47.0,41.0,-100.00,NW,325,5.0,6.0,79,-99.99,,,-99.99,,2013-03-31 08:12:00,
2013-03-31 01:21:00,48.0,41.0,-100.00,NW,321,4.0,5.0,78,-99.99,,,-99.99,,2013-03-31 08:21:00,
2013-03-31 01:32:00,48.0,41.0,-100.00,NW,321,4.0,5.0,78,-99.99,,,-99.99,,2013-03-31 08:32:00,
2013-03-31 01:42:00,47.0,41.0,-100.00,West,268,1.0,2.0,78,-99.99,,,-99.99,,2013-03-31 08:42:00,
2013-03-31 01:52:00,46.0,41.0,-100.00,NW,321,1.0,2.0,81,-99.99,,,-99.99,,2013-03-31 08:52:00,
2013-03-31 02:01:00,47.0,40.0,-100.00,NW,321,3.0,6.0,77,-99.99,,,-99.99,,2013-03-31 09:01:00,
2013-03-31 02:12:00,46.0,39.0,-100.00,NW,324,5.0,6.0,77,-99.99,,,-99.99,,2013-03-31 09:12:00,
2013-03-31 02:21:00,45.0,39.0,-100.00,NNW,327,6.0,8.0,79,-99.99,,,-99.99,,2013-03-31 09:21:00,
2013-03-31 02:32:00,46.0,40.0,-100.00,NW,316,4.0,6.0,79,-99.99,,,-99.99,,2013-03-31 09:32:00,
2013-03-31 02:42:00,46.0,39.0,-100.00,NNW,335,4.0,5.0,75,-99.99,,,-99.99,,2013-03-31 09:42:00,
2013-03-31 02:52:00,46.0,37.0,-100.00,NNW,330,5.0,6.0,71,-99.99,,,-99.99,,2013-03-31 09:52:00,
2013-03-31 03:03:00,44.0,37.0,-100.00,NW,319,6.0,7.0,76,-99.99,,,-99.99,,2013-03-31 10:03:00,
2013-03-31 03:12:00,44.0,37.0,-100.00,NW,326,5.0,6.0,77,-99.99,,,-99.99,,2013-03-31 10:12:00,
2013-03-31 03:23:00,45.0,35.0,-100.00,NNW,327,5.0,6.0,67,-99.99,,,-99.99,,2013-03-31 10:23:00,
2013-03-31 03:32:00,45.0,34.0,-100.00,NW,326,6.0,7.0,66,-99.99,,,-99.99,,2013-03-31 10:32:00,
2013-03-31 03:42:00,45.0,36.0,-100.00,NNW,327,5.0,7.0,70,-99.99,,,-99.99,,2013-03-31 10:42:00,
2013-03-31 03:52:00,46.0,34.0,-100.00,NW,324,4.0,5.0,62,-99.99,,,-99.99,,2013-03-31 10:52:00,
2013-03-31 04:02:00,46.0,32.0,-100.00,NNW,335,4.0,5.0,57,-99.99,,,-99.99,,2013-03-31 11:02:00,
2013-03-31 04:12:00,46.0,31.0,-100.00,NNW,335,4.0,5.0,55,-99.99,,,-99.99,,2013-03-31 11:12:00,
2013-03-31 04:22:00,46.0,32.0,-100.00,NNW,334,4.0,4.0,59,-99.99,,,-99.99,,2013-03-31 11:22:00,
2013-03-31 04:32:00,45.0,30.0,-100.00,NNW,335,4.0,5.0,56,-99.99,,,-99.99,,2013-03-31 11:32:00,
2013-03-31 04:42:00,43.0,33.0,-100.00,NNW,329,6.0,7.0,68,-99.99,,,-99.99,,2013-03-31 11:42:00,
2013-03-31 04:52:00,43.0,35.0,-100.00,NNW,332,5.0,7.0,73,-99.99,,,-99.99,,2013-03-31 11:52:00,
2013-03-31 05:02:00,44.0,33.0,-100.00,NNW,335,4.0,5.0,66,-99.99,,,-99.99,,2013-03-31 12:02:00,
2013-03-31 05:12:00,44.0,31.0,-100.00,NNW,327,5.0,6.0,60,-99.99,,,-99.99,,2013-03-31 12:12:00,
2013-03-31 05:22:00,44.0,31.0,-100.00,NW,323,5.0,6.0,59,-99.99,,,-99.99,,2013-03-31 12:22:00,
2013-03-31 05:32:00,45.0,30.0,-100.00,NNW,332,5.0,6.0,55,-99.99,,,-99.99,,2013-03-31 12:32:00,
2013-03-31 05:42:00,45.0,30.0,-100.00,NNW,332,5.0,6.0,55,-99.99,,,-99.99,,2013-03-31 12:42:00,
2013-03-31 05:52:00,45.0,31.0,-100.00,NNW,332,4.0,5.0,57,-99.99,,,-99.99,,2013-03-31 12:52:00,
2013-03-31 06:02:00,45.0,31.0,-100.00,NNW,332,4.0,5.0,57,-99.99,,,-99.99,,2013-03-31 13:02:00,
2013-03-31 06:12:00,45.0,36.0,-100.00,NW,325,4.0,6.0,71,-99.99,,,-99.99,,2013-03-31 13:12:00,
2013-03-31 06:22:00,44.0,34.0,-100.00,NNW,327,4.0,5.0,67,-99.99,,,-99.99,,2013-03-31 13:22:00,
2013-03-31 06:32:00,44.0,34.0,-100.00,NNW,333,2.0,4.0,67,-99.99,,,-99.99,,2013-03-31 13:32:00,
2013-03-31 06:42:00,44.0,34.0,-100.00,NNW,333,2.0,4.0,67,-99.99,,,-99.99,,2013-03-31 13:42:00,
2013-03-31 06:52:00,45.0,32.0,-100.00,NNW,327,3.0,5.0,61,-99.99,,,-99.99,,2013-03-31 13:52:00,
2013-03-31 07:02:00,45.0,32.0,-100.00,NNW,327,3.0,5.0,61,-99.99,,,-99.99,,2013-03-31 14:02:00,
2013-03-31 07:11:00,45.0,32.0,-100.00,NW,312,2.0,4.0,60,-99.99,,,-99.99,,2013-03-31 14:11:00,
2013-03-31 07:22:00,46.0,34.0,-100.00,NW,326,4.0,5.0,62,-99.99,,,-99.99,,2013-03-31 14:22:00,
2013-03-31 07:32:00,45.0,35.0,-100.00,NW,320,3.0,4.0,68,-99.99,,,-99.99,,2013-03-31 14:32:00,
2013-03-31 07:42:00,46.0,37.0,-100.00,NW,314,3.0,5.0,71,-99.99,,,-99.99,,2013-03-31 14:42:00,
2013-03-31 07:52:00,45.0,35.0,-100.00,NNW,327,5.0,8.0,68,-99.99,,,-99.99,,2013-03-31 14:52:00,
2013-03-31 08:02:00,46.0,34.0,-100.00,NNW,327,3.0,4.0,63,-99.99,,,-99.99,,2013-03-31 15:02:00,
2013-03-31 08:12:00,49.0,34.0,-100.00,NW,326,2.0,3.0,55,-99.99,,,-99.99,,2013-03-31 15:12:00,
2013-03-31 08:21:00,49.0,32.0,-100.00,NNW,334,2.0,4.0,52,-99.99,,,-99.99,,2013-03-31 15:21:00,
2013-03-31 08:33:00,49.0,31.0,-100.00,NNW,345,2.0,3.0,49,-99.99,,,-99.99,,2013-03-31 15:33:00,
2013-03-31 08:43:00,50.0,29.0,-100.00,NNE,12,2.0,3.0,45,-99.99,,,-99.99,,2013-03-31 15:43:00,
2013-03-31 08:53:00,51.0,29.0,-100.00,North,11,2.0,5.0,42,-99.99,,,-99.99,,2013-03-31 15:53:00,
2013-03-31 09:02:00,52.0,31.0,-100.00,North,358,2.0,4.0,44,-99.99,,,-99.99,,2013-03-31 16:02:00,
2013-03-31 09:13:00,52.0,31.0,-100.00,North,358,2.0,4.0,44,-99.99,,,-99.99,,2013-03-31 16:13:00,
2013-03-31 09:22:00,52.0,36.0,-100.00,WNW,289,4.0,12.0,54,-99.99,,,-99.99,,2013-03-31 16:22:00,
2013-03-31 09:32:00,52.0,38.0,-100.00,West,275,5.0,10.0,59,-99.99,,,-99.99,,2013-03-31 16:32:00,
2013-03-31 09:42:00,53.0,40.0,-100.00,West,266,5.0,9.0,62,-99.99,,,-99.99,,2013-03-31 16:42:00,
2013-03-31 09:52:00,53.0,40.0,-100.00,West,266,5.0,9.0,62,-99.99,,,-99.99,,2013-03-31 16:52:00,
2013-03-31 10:02:00,53.0,39.0,-100.00,West,261,4.0,10.0,58,-99.99,,,-99.99,,2013-03-31 17:02:00,
2013-03-31 10:12:00,54.0,40.0,-100.00,West,267,4.0,7.0,58,-99.99,,,-99.99,,2013-03-31 17:12:00,
2013-03-31 10:22:00,54.0,38.0,-100.00,WNW,295,5.0,10.0,55,-99.99,,,-99.99,,2013-03-31 17:22:00,
2013-03-31 10:32:00,55.0,39.0,-100.00,WNW,293,4.0,10.0,55,-99.99,,,-99.99,,2013-03-31 17:32:00,
2013-03-31 10:42:00,55.0,39.0,-100.00,WNW,284,6.0,11.0,55,-99.99,,,-99.99,,2013-03-31 17:42:00,
2013-03-31 10:52:00,55.0,39.0,-100.00,WSW,242,5.0,10.0,55,-99.99,,,-99.99,,2013-03-31 17:52:00,
2013-03-31 11:02:00,56.0,39.0,-100.00,West,272,7.0,14.0,53,-99.99,,,-99.99,,2013-03-31 18:02:00,
2013-03-31 11:12:00,56.0,39.0,-100.00,West,273,6.0,12.0,53,-99.99,,,-99.99,,2013-03-31 18:12:00,
2013-03-31 11:22:00,56.0,40.0,-100.00,West,271,7.0,16.0,54,-99.99,,,-99.99,,2013-03-31 18:22:00,
2013-03-31 11:32:00,56.0,41.0,-100.00,West,269,7.0,15.0,56,-99.99,,,-99.99,,2013-03-31 18:32:00,
2013-03-31 11:42:00,56.0,41.0,-100.00,West,259,8.0,16.0,57,-99.99,,,-99.99,,2013-03-31 18:42:00,
2013-03-31 11:52:00,57.0,42.0,-100.00,WSW,251,6.0,14.0,57,-99.99,,,-99.99,,2013-03-31 18:52:00,
2013-03-31 12:02:00,57.0,41.0,-100.00,West,271,7.0,18.0,56,-99.99,,,-99.99,,2013-03-31 19:02:00,
2013-03-31 12:12:00,56.0,41.0,-100.00,West,267,8.0,17.0,57,-99.99,,,-99.99,,2013-03-31 19:12:00,
2013-03-31 12:22:00,56.0,41.0,-100.00,West,273,8.0,16.0,57,-99.99,,,-99.99,,2013-03-31 19:22:00,
2013-03-31 12:32:00,57.0,42.0,-100.00,West,266,8.0,15.0,57,-99.99,,,-99.99,,2013-03-31 19:32:00,
2013-03-31 12:42:00,57.0,42.0,-100.00,West,275,7.0,15.0,57,-99.99,,,-99.99,,2013-03-31 19:42:00,
2013-03-31 12:53:00,57.0,42.0,-100.00,West,275,7.0,16.0,57,-99.99,,,-99.99,,2013-03-31 19:53:00,
2013-03-31 13:02:00,56.0,41.0,-100.00,West,269,9.0,16.0,58,-99.99,,,-99.99,,2013-03-31 20:02:00,
2013-03-31 13:12:00,56.0,41.0,-100.00,West,272,8.0,15.0,58,-99.99,,,-99.99,,2013-03-31 20:12:00,
2013-03-31 13:22:00,57.0,41.0,-100.00,WNW,286,9.0,17.0,56,-99.99,,,-99.99,,2013-03-31 20:22:00,
2013-03-31 13:32:00,56.0,41.0,-100.00,WNW,285,9.0,18.0,58,-99.99,,,-99.99,,2013-03-31 20:32:00,
2013-03-31 13:42:00,58.0,41.0,-100.00,WNW,294,8.0,17.0,54,-99.99,,,-99.99,,2013-03-31 20:42:00,
2013-03-31 13:52:00,57.0,41.0,-100.00,WNW,284,9.0,16.0,55,-99.99,,,-99.99,,2013-03-31 20:52:00,
2013-03-31 14:02:00,57.0,40.0,-100.00,West,281,10.0,17.0,52,-99.99,,,-99.99,,2013-03-31 21:02:00,
2013-03-31 14:12:00,56.0,41.0,-100.00,WNW,283,8.0,19.0,56,-99.99,,,-99.99,,2013-03-31 21:12:00,
2013-03-31 14:21:00,56.0,40.0,-100.00,WNW,284,11.0,19.0,55,-99.99,,,-99.99,,2013-03-31 21:21:00,
2013-03-31 14:33:00,57.0,40.0,-100.00,WNW,289,9.0,17.0,53,-99.99,,,-99.99,,2013-03-31 21:33:00,
2013-03-31 14:43:00,57.0,41.0,-100.00,West,278,8.0,15.0,55,-99.99,,,-99.99,,2013-03-31 21:43:00,
2013-03-31 14:53:00,57.0,41.0,-100.00,WNW,286,9.0,19.0,55,-99.99,,,-99.99,,2013-03-31 21:53:00,
2013-03-31 15:03:00,57.0,41.0,-100.00,WNW,286,9.0,19.0,55,-99.99,,,-99.99,,2013-03-31 22:03:00,
2013-03-31 15:12:00,56.0,41.0,-100.00,WNW,286,10.0,17.0,58,-99.99,,,-99.99,,2013-03-31 22:12:00,
2013-03-31 15:23:00,56.0,42.0,-100.00,WNW,286,8.0,18.0,59,-99.99,,,-99.99,,2013-03-31 22:23:00,
2013-03-31 15:33:00,57.0,41.0,-100.00,WNW,295,9.0,16.0,56,-99.99,,,-99.99,,2013-03-31 22:33:00,
2013-03-31 15:42:00,57.0,39.0,-100.00,WNW,282,7.0,14.0,51,-99.99,,,-99.99,,2013-03-31 22:42:00,
2013-03-31 15:52:00,57.0,39.0,-100.00,WSW,258,9.0,19.0,50,-99.99,,,-99.99,,2013-03-31 22:52:00,
2013-03-31 16:02:00,57.0,40.0,-100.00,West,281,9.0,17.0,52,-99.99,,,-99.99,,2013-03-31 23:02:00,
2013-03-31 16:12:00,56.0,40.0,-100.00,West,277,9.0,17.0,54,-99.99,,,-99.99,,2013-03-31 23:12:00,
2013-03-31 16:22:00,56.0,40.0,-100.00,West,280,8.0,15.0,54,-99.99,,,-99.99,,2013-03-31 23:22:00,
2013-03-31 16:32:00,57.0,39.0,-100.00,WNW,283,9.0,18.0,51,-99.99,,,-99.99,,2013-03-31 23:32:00,
2013-03-31 16:42:00,57.0,40.0,-100.00,West,274,10.0,17.0,52,-99.99,,,-99.99,,2013-03-31 23:42:00,
2013-03-31 16:52:00,56.0,42.0,-100.00,WNW,284,10.0,17.0,59,-99.99,,,-99.99,,2013-03-31 23:52:00,
2013-03-31 17:02:00,56.0,43.0,-100.00,WNW,290,9.0,16.0,62,-99.99,,,-99.99,,2013-04-01 00:02:00,
2013-03-31 17:12:00,55.0,41.0,-100.00,WNW,283,10.0,20.0,58,-99.99,,,-99.99,,2013-04-01 00:12:00,
2013-03-31 17:22:00,55.0,39.0,-100.00,West,273,9.0,17.0,55,-99.99,,,-99.99,,2013-04-01 00:22:00,
2013-03-31 17:32:00,55.0,39.0,-100.00,West,275,8.0,17.0,55,-99.99,,,-99.99,,2013-04-01 00:32:00,
2013-03-31 17:42:00,55.0,39.0,-100.00,West,275,8.0,17.0,55,-99.99,,,-99.99,,2013-04-01 00:42:00,
2013-03-31 17:52:00,54.0,40.0,-100.00,West,276,9.0,17.0,58,-99.99,,,-99.99,,2013-04-01 00:52:00,
2013-03-31 18:02:00,54.0,41.0,-100.00,West,274,9.0,13.0,61,-99.99,,,-99.99,,2013-04-01 01:02:00,
2013-03-31 18:12:00,53.0,41.0,-100.00,West,278,8.0,14.0,64,-99.99,,,-99.99,,2013-04-01 01:12:00,
2013-03-31 18:22:00,53.0,42.0,-100.00,West,281,7.0,14.0,65,-99.99,,,-99.99,,2013-04-01 01:22:00,
2013-03-31 18:32:00,52.0,41.0,-100.00,WNW,282,7.0,12.0,65,-99.99,,,-99.99,,2013-04-01 01:32:00,
2013-03-31 18:42:00,51.0,41.0,-100.00,West,277,6.0,11.0,68,-99.99,,,-99.99,,2013-04-01 01:42:00,
2013-03-31 18:52:00,51.0,42.0,-100.00,WNW,290,6.0,9.0,72,-99.99,,,-99.99,,2013-04-01 01:52:00,
2013-03-31 19:02:00,51.0,42.0,-100.00,West,278,6.0,9.0,70,-99.99,,,-99.99,,2013-04-01 02:02:00,
2013-03-31 19:12:00,50.0,42.0,-100.00,WNW,289,5.0,9.0,75,-99.99,,,-99.99,,2013-04-01 02:12:00,
2013-03-31 19:22:00,49.0,43.0,-100.00,WNW,288,4.0,8.0,79,-99.99,,,-99.99,,2013-04-01 02:22:00,
2013-03-31 19:32:00,48.0,42.0,-100.00,WNW,296,5.0,10.0,81,-99.99,,,-99.99,,2013-04-01 02:32:00,
2013-03-31 19:42:00,48.0,44.0,-100.00,West,277,4.0,7.0,85,-99.99,,,-99.99,,2013-04-01 02:42:00,
2013-03-31 19:52:00,47.0,44.0,-100.00,West,268,3.0,6.0,88,-99.99,,,-99.99,,2013-04-01 02:52:00,
2013-03-31 20:02:00,46.0,44.0,-100.00,West,269,3.0,5.0,91,-99.99,,,-99.99,,2013-04-01 03:02:00,
2013-03-31 20:12:00,46.0,44.0,-100.00,West,271,4.0,6.0,93,-99.99,,,-99.99,,2013-04-01 03:12:00,
2013-03-31 20:22:00,46.0,44.0,-100.00,WNW,284,4.0,6.0,94,-99.99,,,-99.99,,2013-04-01 03:22:00,
2013-03-31 20:33:00,46.0,45.0,-100.00,WNW,284,3.0,5.0,95,-99.99,,,-99.99,,2013-04-01 03:33:00,
2013-03-31 20:43:00,46.0,45.0,-100.00,WSW,256,2.0,4.0,95,-99.99,,,-99.99,,2013-04-01 03:43:00,
2013-03-31 20:52:00,45.0,44.0,-100.00,West,271,2.0,5.0,95,-99.99,,,-99.99,,2013-04-01 03:52:00,
2013-03-31 21:02:00,45.0,44.0,-100.00,WNW,287,3.0,5.0,95,-99.99,,,-99.99,,2013-04-01 04:02:00,
2013-03-31 21:13:00,44.0,43.0,-100.00,West,279,2.0,4.0,95,-99.99,,,-99.99,,2013-04-01 04:13:00,
2013-03-31 21:23:00,44.0,43.0,-100.00,WNW,292,3.0,6.0,95,-99.99,,,-99.99,,2013-04-01 04:23:00,
2013-03-31 21:32:00,44.0,42.0,-100.00,WNW,293,2.0,4.0,94,-99.99,,,-99.99,,2013-04-01 04:32:00,
2013-03-31 21:43:00,44.0,42.0,-100.00,West,273,3.0,5.0,94,-99.99,,,-99.99,,2013-04-01 04:43:00,
2013-03-31 21:52:00,45.0,44.0,-100.00,West,277,2.0,5.0,95,-99.99,,,-99.99,,2013-04-01 04:52:00,
2013-03-31 22:02:00,44.0,43.0,-100.00,West,273,1.0,3.0,95,-99.99,,,-99.99,,2013-04-01 05:02:00,
2013-03-31 22:12:00,44.0,42.0,-100.00,SE,146,1.0,3.0,94,-99.99,,,-99.99,,2013-04-01 05:12:00,
2013-03-31 22:22:00,44.0,41.0,-100.00,ENE,68,2.0,6.0,89,-99.99,,,-99.99,,2013-04-01 05:22:00,
2013-03-31 22:32:00,45.0,41.0,-100.00,NNW,339,2.0,6.0,87,-99.99,,,-99.99,,2013-04-01 05:32:00,
2013-03-31 22:42:00,45.0,42.0,-100.00,NW,305,4.0,11.0,90,-99.99,,,-99.99,,2013-04-01 05:42:00,
2013-03-31 22:52:00,45.0,42.0,-100.00,WSW,244,2.0,8.0,89,-99.99,,,-99.99,,2013-04-01 05:52:00,
2013-03-31 23:01:00,44.0,41.0,-100.00,SSE,168,2.0,5.0,89,-99.99,,,-99.99,,2013-04-01 06:01:00,
2013-03-31 23:12:00,44.0,42.0,-100.00,South,172,3.0,6.0,91,-99.99,,,-99.99,,2013-04-01 06:12:00,
2013-03-31 23:22:00,44.0,42.0,-100.00,SE,127,3.0,5.0,92,-99.99,,,-99.99,,2013-04-01 06:22:00,
2013-03-31 23:32:00,45.0,42.0,-100.00,SE,132,2.0,4.0,88,-99.99,,,-99.99,,2013-04-01 06:32:00,
2013-03-31 23:42:00,45.0,40.0,-100.00,SSE,151,2.0,4.0,84,-99.99,,,-99.99,,2013-04-01 06:42:00,
2013-03-31 23:52:00,45.0,40.0,-100.00,SSE,151,2.0,4.0,84,-99.99,,,-99.99,,2013-04-01 06:52:00,